Time;durP1;ratioP1;P1;durP2;ratioP2;P2;SDS_P1;SDS_P2;PMS_P1;PMS_P2;Temp;Humidity;BMP_temperature;BMP_pressure;BME280_temperature;BME280_humidity;BME280_pressure;Samples;Min_cycle;Max_cycle;Signal;HPM_P1;HPM_P2
2022/08/08 00:01:39;;;;;;;3.10;2.90;;;21.60;46.20;;;;;;5113910;28;20435;-69
2022/08/08 00:04:10;;;;;;;3.00;2.50;;;21.60;46.30;;;;;;5113608;28;20459;-69
2022/08/08 00:06:48;;;;;;;3.00;2.80;;;21.50;46.40;;;;;;5113756;28;20468;-69
2022/08/08 00:09:27;;;;;;;3.00;2.80;;;21.50;46.60;;;;;;5113725;28;20455;-69
2022/08/08 00:11:59;;;;;;;3.08;2.70;;;21.50;46.60;;;;;;5113552;28;20421;-69
2022/08/08 00:14:45;;;;;;;3.13;2.83;;;21.50;46.70;;;;;;5114351;28;20266;-69
2022/08/08 00:17:21;;;;;;;3.00;2.37;;;21.40;46.80;;;;;;5113569;28;20463;-69
2022/08/08 00:20:03;;;;;;;2.80;2.60;;;21.40;47.00;;;;;;5114235;28;20529;-69
2022/08/08 00:22:36;;;;;;;3.00;2.80;;;21.30;47.10;;;;;;5114909;28;20447;-69
2022/08/08 00:25:11;;;;;;;2.63;2.50;;;21.20;47.30;;;;;;5114715;28;20494;-69
2022/08/08 00:27:38;;;;;;;2.97;2.77;;;21.20;47.30;;;;;;5114340;28;20432;-69
2022/08/08 00:30:09;;;;;;;4.77;2.70;;;21.10;47.40;;;;;;5113470;28;20449;-69
2022/08/08 00:32:42;;;;;;;2.73;2.53;;;21.10;47.60;;;;;;5113935;28;20424;-69
2022/08/08 00:35:33;;;;;;;2.60;2.40;;;21.00;47.80;;;;;;5113273;28;20471;-69
2022/08/08 00:38:16;;;;;;;5.43;2.60;;;20.90;47.70;;;;;;5113414;28;20478;-69
2022/08/08 00:41:09;;;;;;;3.43;2.47;;;20.90;47.90;;;;;;5113544;28;20510;-69
2022/08/08 00:43:51;;;;;;;2.93;2.50;;;20.80;48.00;;;;;;5113284;28;20459;-69
2022/08/08 00:46:57;;;;;;;6.33;3.07;;;20.80;48.20;;;;;;5113443;28;20479;-69
2022/08/08 00:50:14;;;;;;;6.07;3.50;;;20.80;48.40;;;;;;5062767;28;20447;-69
2022/08/08 00:52:53;;;;;;;6.00;2.93;;;20.70;48.50;;;;;;5068026;28;20443;-69
2022/08/08 00:55:48;;;;;;;3.67;3.30;;;20.70;48.70;;;;;;5113407;28;20564;-69
2022/08/08 00:58:47;;;;;;;2.93;2.53;;;20.60;48.80;;;;;;5113469;28;20820;-69
2022/08/08 01:01:18;;;;;;;4.20;2.80;;;20.50;49.00;;;;;;5087164;28;20445;-69
2022/08/08 01:04:10;;;;;;;3.70;3.40;;;20.50;49.10;;;;;;5113388;28;20463;-69
2022/08/08 01:07:11;;;;;;;2.80;2.37;;;20.50;49.20;;;;;;5084166;28;20454;-69
2022/08/08 01:10:28;;;;;;;3.90;3.20;;;20.50;49.40;;;;;;5113256;28;20893;-69
2022/08/08 01:13:29;;;;;;;2.90;2.70;;;20.50;49.50;;;;;;5113407;28;20447;-69
2022/08/08 01:16:31;;;;;;;5.63;2.73;;;20.40;49.70;;;;;;5113294;28;20602;-69
2022/08/08 01:19:48;;;;;;;2.77;2.53;;;20.40;49.80;;;;;;5114734;28;20474;-69
2022/08/08 01:22:43;;;;;;;2.97;2.67;;;20.30;49.90;;;;;;5034496;28;20434;-69
2022/08/08 01:26:02;;;;;;;3.87;2.67;;;20.30;50.10;;;;;;5117136;28;20465;-70
2022/08/08 01:29:05;;;;;;;5.03;3.63;;;20.30;50.20;;;;;;5104625;28;20447;-70
2022/08/08 01:32:05;;;;;;;3.80;2.80;;;20.20;50.30;;;;;;5101340;28;20809;-70
2022/08/08 01:35:08;;;;;;;3.20;3.00;;;20.20;50.50;;;;;;5117092;28;20843;-70
2022/08/08 01:38:23;;;;;;;3.70;2.90;;;20.10;50.60;;;;;;5093812;28;20472;-69
2022/08/08 01:41:01;;;;;;;3.70;3.40;;;20.10;50.80;;;;;;5054058;28;20433;-69
2022/08/08 01:43:48;;;;;;;3.50;3.10;;;20.10;51.00;;;;;;5106664;28;20477;-69
2022/08/08 01:46:39;;;;;;;4.83;2.60;;;20.00;51.10;;;;;;5117017;28;20430;-69
2022/08/08 01:49:16;;;;;;;3.73;3.43;;;19.90;51.10;;;;;;5116833;28;20427;-69
2022/08/08 01:52:02;;;;;;;3.67;3.40;;;19.90;51.30;;;;;;5116172;28;20559;-69
2022/08/08 01:54:43;;;;;;;3.53;3.30;;;19.80;51.30;;;;;;5115897;28;20502;-69
2022/08/08 01:57:24;;;;;;;4.40;3.70;;;19.70;51.30;;;;;;5116627;28;20432;-69
2022/08/08 02:00:13;;;;;;;3.60;3.30;;;19.70;51.50;;;;;;5116012;28;20469;-69
2022/08/08 02:03:15;;;;;;;3.30;3.10;;;19.60;51.50;;;;;;5116106;28;20431;-70
2022/08/08 02:05:52;;;;;;;3.43;3.10;;;19.60;51.50;;;;;;5116620;28;20442;-69
2022/08/08 02:08:28;;;;;;;3.43;3.10;;;19.50;51.70;;;;;;5116323;28;20561;-70
2022/08/08 02:11:05;;;;;;;6.20;3.40;;;19.50;51.90;;;;;;5116200;28;20458;-70
2022/08/08 02:13:41;;;;;;;4.10;3.63;;;19.40;51.90;;;;;;5116167;28;20535;-70
2022/08/08 02:16:16;;;;;;;4.27;3.70;;;19.40;52.30;;;;;;5116336;28;20427;-70
2022/08/08 02:18:51;;;;;;;4.30;3.60;;;19.40;52.60;;;;;;5115862;28;20478;-70
2022/08/08 02:24:15;;;;;;;3.90;3.70;;;19.30;53.00;;;;;;5115960;28;20442;-70
2022/08/08 02:26:49;;;;;;;4.07;3.67;;;19.30;53.40;;;;;;5116418;28;20984;-70
2022/08/08 02:29:32;;;;;;;3.90;3.47;;;19.30;53.50;;;;;;5115901;28;20507;-70
2022/08/08 02:32:26;;;;;;;3.73;3.37;;;19.30;53.60;;;;;;5116324;28;20776;-70
2022/08/08 02:35:32;;;;;;;4.70;4.27;;;19.20;53.70;;;;;;5116240;28;20455;-70
2022/08/08 02:38:25;;;;;;;5.07;4.27;;;19.20;53.90;;;;;;5090311;28;20504;-70
2022/08/08 02:41:14;;;;;;;5.77;3.90;;;19.10;54.20;;;;;;5116167;28;20904;-70
2022/08/08 02:44:06;;;;;;;5.90;4.30;;;19.10;54.40;;;;;;5116676;28;20821;-70
2022/08/08 02:46:59;;;;;;;4.10;3.80;;;19.10;54.70;;;;;;5116402;28;20555;-70
2022/08/08 02:49:47;;;;;;;4.10;3.70;;;19.10;54.90;;;;;;5116509;28;20427;-70
2022/08/08 02:52:41;;;;;;;4.33;4.00;;;19.00;54.90;;;;;;5117925;28;20419;-70
2022/08/08 02:55:39;;;;;;;6.10;4.70;;;19.00;55.70;;;;;;5117164;28;20502;-70
2022/08/08 02:59:04;;;;;;;4.73;4.33;;;19.00;55.40;;;;;;5117127;28;20450;-70
2022/08/08 03:02:16;;;;;;;4.53;4.13;;;19.00;55.70;;;;;;5116255;28;20952;-70
2022/08/08 03:05:17;;;;;;;5.70;3.87;;;18.90;55.80;;;;;;5115497;28;20463;-69
2022/08/08 03:08:16;;;;;;;8.63;4.60;;;18.90;55.70;;;;;;5115791;28;20439;-69
2022/08/08 03:11:15;;;;;;;6.13;4.30;;;18.80;55.70;;;;;;5114919;28;20428;-69
2022/08/08 03:14:01;;;;;;;5.00;4.17;;;18.70;55.80;;;;;;5088698;28;20558;-69
2022/08/08 03:16:39;;;;;;;3.83;3.53;;;18.70;56.00;;;;;;5114891;28;20442;-69
2022/08/08 03:19:20;;;;;;;4.80;4.40;;;18.60;56.00;;;;;;5114915;28;20463;-70
2022/08/08 03:21:46;;;;;;;6.30;4.57;;;18.60;56.10;;;;;;5114021;28;20463;-70
2022/08/08 03:24:17;;;;;;;4.53;4.10;;;18.50;56.20;;;;;;5114162;28;20967;-70
2022/08/08 03:26:51;;;;;;;5.30;4.43;;;18.50;56.10;;;;;;5114708;28;20431;-70
2022/08/08 03:29:23;;;;;;;5.40;4.90;;;18.40;56.20;;;;;;5114273;28;20809;-70
2022/08/08 03:34:35;;;;;;;4.60;4.20;;;18.30;56.10;;;;;;5114625;28;20484;-69
2022/08/08 03:37:02;;;;;;;5.03;4.53;;;18.20;56.00;;;;;;5114679;28;20450;-69
2022/08/08 03:39:30;;;;;;;6.20;4.30;;;18.20;56.00;;;;;;5113574;28;20489;-69
2022/08/08 03:42:01;;;;;;;6.20;4.10;;;18.20;56.10;;;;;;5114185;28;20571;-69
2022/08/08 03:44:32;;;;;;;4.53;4.07;;;18.10;56.30;;;;;;5114024;28;20556;-69
2022/08/08 03:46:59;;;;;;;4.23;3.90;;;18.10;56.20;;;;;;5114215;28;20453;-69
2022/08/08 03:49:27;;;;;;;4.20;3.80;;;18.10;56.40;;;;;;5114304;28;20484;-69
2022/08/08 03:51:56;;;;;;;5.10;4.60;;;18.00;56.40;;;;;;5114309;28;20446;-70
2022/08/08 03:54:24;;;;;;;5.40;4.87;;;17.90;56.50;;;;;;5114041;28;21046;-70
2022/08/08 03:56:53;;;;;;;6.50;4.50;;;17.90;56.60;;;;;;5114470;28;20474;-70
2022/08/08 03:59:20;;;;;;;4.70;4.20;;;17.90;56.90;;;;;;5114032;28;20478;-70
2022/08/08 04:01:47;;;;;;;4.73;4.23;;;17.90;57.10;;;;;;5114031;28;20457;-70
2022/08/08 04:04:18;;;;;;;5.10;4.60;;;17.80;57.10;;;;;;5114352;28;20462;-70
2022/08/08 04:06:54;;;;;;;4.97;4.57;;;17.80;57.40;;;;;;5114279;28;20435;-70
2022/08/08 04:09:21;;;;;;;5.57;5.00;;;17.80;57.60;;;;;;5114025;28;20449;-69
2022/08/08 04:11:48;;;;;;;8.40;4.80;;;17.70;57.70;;;;;;5113967;28;20446;-70
2022/08/08 04:14:17;;;;;;;7.83;4.20;;;17.70;57.80;;;;;;5113920;28;20463;-70
2022/08/08 04:16:44;;;;;;;6.57;5.37;;;17.70;57.90;;;;;;5113247;28;20450;-70
2022/08/08 04:19:11;;;;;;;5.47;4.70;;;17.60;57.90;;;;;;5113783;28;20834;-70
2022/08/08 04:21:38;;;;;;;4.43;4.03;;;17.60;58.10;;;;;;5113336;28;20476;-70
2022/08/08 04:24:05;;;;;;;4.60;4.20;;;17.60;57.90;;;;;;5113550;28;20455;-70
2022/08/08 04:26:32;;;;;;;5.40;4.20;;;17.60;58.10;;;;;;5113524;28;20756;-71
2022/08/08 04:28:59;;;;;;;5.73;5.13;;;17.60;58.30;;;;;;5114074;28;20442;-70
2022/08/08 04:31:27;;;;;;;5.23;4.20;;;17.60;58.50;;;;;;5113822;28;20846;-70
2022/08/08 04:33:53;;;;;;;11.63;5.10;;;17.50;58.60;;;;;;5113572;28;20886;-70
2022/08/08 04:36:20;;;;;;;6.40;5.57;;;17.50;58.60;;;;;;5113681;28;20811;-70
2022/08/08 04:38:47;;;;;;;5.30;4.90;;;17.50;58.70;;;;;;5113660;28;20849;-70
2022/08/08 04:41:14;;;;;;;5.67;4.87;;;17.40;58.80;;;;;;5113983;28;20447;-70
2022/08/08 04:43:41;;;;;;;5.47;4.97;;;17.40;59.00;;;;;;5113829;28;20466;-70
2022/08/08 04:46:08;;;;;;;4.73;4.33;;;17.30;58.80;;;;;;5113933;28;20438;-70
2022/08/08 04:48:36;;;;;;;4.93;4.53;;;17.30;59.00;;;;;;5113571;28;20461;-70
2022/08/08 04:51:03;;;;;;;5.30;4.90;;;17.30;59.10;;;;;;5114893;28;20889;-70
2022/08/08 04:53:30;;;;;;;6.67;5.30;;;17.40;59.30;;;;;;5118002;28;20478;-70
2022/08/08 04:55:56;;;;;;;6.13;5.50;;;17.40;59.80;;;;;;5137801;27;20456;-70
2022/08/08 04:58:23;;;;;;;6.40;5.80;;;17.40;60.40;;;;;;5138536;27;20475;-70
2022/08/08 05:00:50;;;;;;;5.77;5.17;;;17.50;61.10;;;;;;5138928;27;20481;-70
2022/08/08 05:03:17;;;;;;;5.80;5.30;;;17.50;61.20;;;;;;5138023;27;20450;-70
2022/08/08 05:05:45;;;;;;;5.90;5.30;;;17.50;61.60;;;;;;5138402;27;20445;-70
2022/08/08 05:08:12;;;;;;;5.20;4.70;;;17.50;61.90;;;;;;5138311;27;20456;-70
2022/08/08 05:10:39;;;;;;;6.30;5.50;;;17.50;62.20;;;;;;5137952;27;20822;-70
2022/08/08 05:13:06;;;;;;;6.00;5.50;;;17.50;62.40;;;;;;5138021;27;20950;-70
2022/08/08 05:15:33;;;;;;;5.97;5.47;;;17.60;63.30;;;;;;5138924;27;20962;-70
2022/08/08 05:17:59;;;;;;;8.13;5.50;;;17.60;63.60;;;;;;5137541;27;20854;-70
2022/08/08 05:20:26;;;;;;;8.03;6.97;;;17.60;64.20;;;;;;5137738;27;20997;-70
2022/08/08 05:22:54;;;;;;;7.50;6.53;;;17.60;64.60;;;;;;5138010;27;20445;-70
2022/08/08 05:25:21;;;;;;;11.53;6.53;;;17.70;65.20;;;;;;5137912;27;20474;-70
2022/08/08 05:27:48;;;;;;;8.33;6.60;;;17.70;66.00;;;;;;5137950;27;20445;-70
2022/08/08 05:30:15;;;;;;;9.50;6.57;;;17.70;66.10;;;;;;5137936;27;20448;-70
2022/08/08 05:32:42;;;;;;;8.40;7.30;;;17.80;67.70;;;;;;5137855;27;20452;-70
2022/08/08 05:35:10;;;;;;;9.07;7.53;;;17.80;68.80;;;;;;5137505;27;21082;-70
2022/08/08 05:37:40;;;;;;;9.27;8.37;;;17.80;70.20;;;;;;5137702;27;20437;-70
2022/08/08 05:40:10;;;;;;;9.20;8.40;;;17.80;71.90;;;;;;5137670;27;20473;-70
2022/08/08 05:42:41;;;;;;;8.90;7.60;;;17.80;72.60;;;;;;5138204;27;20449;-70
2022/08/08 05:45:11;;;;;;;9.47;8.57;;;17.90;73.30;;;;;;5137837;27;20472;-70
2022/08/08 05:47:39;;;;;;;10.40;8.77;;;18.00;74.30;;;;;;5137732;27;20443;-70
2022/08/08 05:50:07;;;;;;;9.40;8.27;;;18.10;74.60;;;;;;5137432;27;20938;-70
2022/08/08 05:52:34;;;;;;;9.00;8.20;;;18.10;74.50;;;;;;5137572;27;20446;-70
2022/08/08 05:55:01;;;;;;;10.07;8.97;;;18.20;74.50;;;;;;5137550;27;20461;-70
2022/08/08 05:57:34;;;;;;;8.73;7.93;;;18.30;74.90;;;;;;5137592;27;20960;-70
2022/08/08 06:00:04;;;;;;;8.83;7.90;;;18.30;74.40;;;;;;5138374;27;20462;-70
2022/08/08 06:05:19;;;;;;;9.30;8.10;;;18.50;74.40;;;;;;5138797;27;20883;-70
2022/08/08 06:07:48;;;;;;;11.20;8.67;;;18.60;74.50;;;;;;5138623;27;20438;-70
2022/08/08 06:10:16;;;;;;;13.13;7.93;;;18.60;75.00;;;;;;5137964;27;20438;-70
2022/08/08 06:12:45;;;;;;;11.43;9.03;;;18.60;75.20;;;;;;5137214;27;20442;-70
2022/08/08 06:15:12;;;;;;;9.50;7.97;;;18.60;75.00;;;;;;5137063;27;20549;-70
2022/08/08 06:17:40;;;;;;;10.03;9.13;;;18.70;75.80;;;;;;5136755;27;20462;-70
2022/08/08 06:20:09;;;;;;;10.20;8.67;;;18.70;75.40;;;;;;5136811;27;20489;-70
2022/08/08 06:22:36;;;;;;;11.57;8.87;;;18.70;74.70;;;;;;5136868;27;20430;-70
2022/08/08 06:25:04;;;;;;;9.47;8.57;;;18.70;75.10;;;;;;5136744;27;20462;-70
2022/08/08 06:27:36;;;;;;;9.93;8.57;;;18.70;76.00;;;;;;5136755;27;20449;-70
2022/08/08 06:30:07;;;;;;;8.73;8.00;;;18.70;76.40;;;;;;5136718;27;20460;-70
2022/08/08 06:32:40;;;;;;;11.73;8.53;;;18.70;76.00;;;;;;5136693;27;20423;-70
2022/08/08 06:35:10;;;;;;;11.30;8.67;;;18.80;76.60;;;;;;5136666;27;20466;-70
2022/08/08 06:37:39;;;;;;;11.50;9.90;;;18.90;77.10;;;;;;5136941;27;20447;-70
2022/08/08 06:40:08;;;;;;;9.87;7.50;;;19.00;77.10;;;;;;5136479;27;20482;-70
2022/08/08 06:42:36;;;;;;;11.40;8.33;;;19.10;76.80;;;;;;5136490;27;20450;-70
2022/08/08 06:45:06;;;;;;;9.67;8.70;;;19.20;76.40;;;;;;5136391;27;20474;-70
2022/08/08 06:47:34;;;;;;;10.30;9.00;;;19.30;76.00;;;;;;5136458;27;20549;-70
2022/08/08 06:50:01;;;;;;;9.63;7.53;;;19.40;75.30;;;;;;5136310;27;20445;-70
2022/08/08 06:52:28;;;;;;;8.13;7.33;;;19.50;74.20;;;;;;5136325;27;20444;-70
2022/08/08 06:54:57;;;;;;;9.30;8.03;;;19.70;73.20;;;;;;5136275;27;20470;-70
2022/08/08 06:57:25;;;;;;;8.57;7.67;;;19.80;73.40;;;;;;5136215;27;20503;-70
2022/08/08 06:59:52;;;;;;;7.90;7.10;;;20.00;72.30;;;;;;5136097;27;20481;-70
2022/08/08 07:02:24;;;;;;;7.43;6.50;;;20.10;71.30;;;;;;5136224;27;20806;-70
2022/08/08 07:04:54;;;;;;;10.37;9.00;;;20.30;69.50;;;;;;5136035;27;20466;-70
2022/08/08 07:07:27;;;;;;;7.77;6.60;;;20.50;68.70;;;;;;5136013;27;20446;-70
2022/08/08 07:10:03;;;;;;;9.90;7.00;;;20.70;69.00;;;;;;5135638;27;20438;-70
2022/08/08 07:12:39;;;;;;;7.33;6.33;;;20.90;68.40;;;;;;5135614;27;20795;-69
2022/08/08 07:15:08;;;;;;;9.60;7.47;;;21.00;66.70;;;;;;5135757;27;20470;-69
2022/08/08 07:17:37;;;;;;;8.83;6.30;;;21.20;66.00;;;;;;5135569;27;20462;-69
2022/08/08 07:20:07;;;;;;;8.23;5.90;;;21.40;64.70;;;;;;5135686;27;20486;-69
2022/08/08 07:22:41;;;;;;;10.73;7.87;;;21.70;63.90;;;;;;5135728;27;20442;-68
2022/08/08 07:25:10;;;;;;;8.30;5.70;;;21.90;63.40;;;;;;5135644;27;20824;-68
2022/08/08 07:27:41;;;;;;;8.67;7.60;;;22.10;62.20;;;;;;5135586;27;20449;-68
2022/08/08 07:30:09;;;;;;;8.47;6.47;;;22.40;62.00;;;;;;5135558;27;20795;-68
2022/08/08 07:32:39;;;;;;;9.60;6.00;;;22.50;60.10;;;;;;5135519;27;20441;-68
2022/08/08 07:35:07;;;;;;;8.17;6.43;;;22.70;59.30;;;;;;5135462;27;20469;-68
2022/08/08 07:37:36;;;;;;;12.40;8.00;;;22.90;58.80;;;;;;5135238;27;20912;-68
2022/08/08 07:40:03;;;;;;;8.50;7.50;;;23.20;57.40;;;;;;5135271;27;20488;-68
2022/08/08 07:42:32;;;;;;;7.17;6.43;;;23.30;57.00;;;;;;5135293;27;20446;-68
2022/08/08 07:44:59;;;;;;;8.93;6.93;;;23.50;56.30;;;;;;5135185;27;20473;-68
2022/08/08 07:47:26;;;;;;;9.73;7.13;;;23.60;55.70;;;;;;5135255;27;20450;-68
2022/08/08 07:49:54;;;;;;;11.73;7.53;;;23.90;54.70;;;;;;5135140;27;20441;-69
2022/08/08 07:52:22;;;;;;;11.83;7.90;;;24.10;54.20;;;;;;5135312;27;20423;-69
2022/08/08 07:54:57;;;;;;;7.97;7.13;;;24.40;53.20;;;;;;5135019;27;20470;-69
2022/08/08 07:57:33;;;;;;;14.13;8.80;;;24.60;53.40;;;;;;5134809;27;20434;-69
2022/08/08 08:00:05;;;;;;;11.57;8.73;;;24.80;52.70;;;;;;5135081;27;20519;-69
2022/08/08 08:02:38;;;;;;;8.40;7.53;;;24.90;51.80;;;;;;5134872;27;20902;-68
2022/08/08 08:05:18;;;;;;;12.53;7.97;;;24.90;51.60;;;;;;5135021;27;20462;-68
2022/08/08 08:07:48;;;;;;;13.83;8.27;;;25.10;51.30;;;;;;5135222;27;20430;-69
2022/08/08 08:10:17;;;;;;;9.60;7.13;;;25.30;50.70;;;;;;5135039;27;20419;-69
2022/08/08 08:12:51;;;;;;;9.60;7.03;;;25.40;50.50;;;;;;5135093;27;20446;-69
2022/08/08 08:15:19;;;;;;;8.53;6.17;;;25.60;50.20;;;;;;5134984;27;20466;-69
2022/08/08 08:17:49;;;;;;;12.33;7.70;;;25.70;49.40;;;;;;5135123;27;20454;-69
2022/08/08 08:20:19;;;;;;;9.90;6.83;;;25.80;48.90;;;;;;5135087;27;20989;-68
2022/08/08 08:22:46;;;;;;;8.83;6.63;;;25.90;48.70;;;;;;5134674;27;20430;-68
2022/08/08 08:25:12;;;;;;;7.97;5.33;;;26.00;48.30;;;;;;5134634;27;20462;-69
2022/08/08 08:27:39;;;;;;;7.50;4.73;;;26.10;48.10;;;;;;5134343;27;20446;-69
2022/08/08 08:30:07;;;;;;;9.27;5.83;;;26.20;47.80;;;;;;5134691;27;20445;-69
2022/08/08 08:32:34;;;;;;;7.70;5.50;;;26.40;47.60;;;;;;5134651;27;20441;-69
2022/08/08 08:35:01;;;;;;;6.50;5.90;;;26.60;46.60;;;;;;5134467;28;20472;-69
2022/08/08 08:37:29;;;;;;;6.90;5.77;;;26.80;46.70;;;;;;5134243;28;20935;-69
2022/08/08 08:39:56;;;;;;;7.80;5.13;;;26.90;45.80;;;;;;5134423;28;20489;-69
2022/08/08 08:42:24;;;;;;;7.97;4.77;;;27.00;45.70;;;;;;5134562;28;20442;-69
2022/08/08 08:44:52;;;;;;;8.20;5.20;;;27.20;45.10;;;;;;5134429;28;20458;-69
2022/08/08 08:47:20;;;;;;;6.27;5.60;;;27.50;44.90;;;;;;5134538;28;20435;-69
2022/08/08 08:49:46;;;;;;;10.10;5.30;;;27.70;44.40;;;;;;5134118;28;20816;-69
2022/08/08 08:52:16;;;;;;;7.10;4.40;;;27.90;43.60;;;;;;5134532;28;20446;-69
2022/08/08 08:54:46;;;;;;;9.20;5.07;;;28.00;42.30;;;;;;5134503;28;20534;-69
2022/08/08 08:57:15;;;;;;;5.23;4.10;;;28.20;41.20;;;;;;5134569;28;20496;-69
2022/08/08 08:59:43;;;;;;;6.23;5.57;;;28.30;41.60;;;;;;5134396;28;20427;-69
2022/08/08 09:02:19;;;;;;;8.00;4.87;;;28.50;41.00;;;;;;5134578;28;20438;-69
2022/08/08 09:04:48;;;;;;;5.90;4.20;;;28.60;40.00;;;;;;5134219;28;20479;-67
2022/08/08 09:07:18;;;;;;;5.30;4.80;;;28.70;39.50;;;;;;5134528;28;20427;-68
2022/08/08 09:09:52;;;;;;;4.93;4.27;;;28.80;39.30;;;;;;5134858;28;20423;-67
2022/08/08 09:12:22;;;;;;;5.97;4.53;;;28.80;38.90;;;;;;5134838;28;20895;-67
2022/08/08 09:14:54;;;;;;;7.97;5.13;;;28.80;38.70;;;;;;5135502;28;20469;-68
2022/08/08 09:17:23;;;;;;;5.37;3.80;;;28.70;39.70;;;;;;5135548;28;20461;-68
2022/08/08 09:19:53;;;;;;;5.00;4.30;;;28.80;39.70;;;;;;5135848;28;20455;-68
2022/08/08 09:22:21;;;;;;;7.03;3.50;;;28.80;39.10;;;;;;5135975;28;20426;-68
2022/08/08 09:24:49;;;;;;;7.80;4.43;;;28.90;39.40;;;;;;5134793;28;20468;-67
2022/08/08 09:27:18;;;;;;;5.67;3.53;;;29.10;38.20;;;;;;5134240;28;20503;-68
2022/08/08 09:29:51;;;;;;;4.87;3.17;;;29.10;38.10;;;;;;5134054;28;20445;-68
2022/08/08 09:32:23;;;;;;;5.90;4.17;;;29.30;38.30;;;;;;5134174;28;20521;-68
2022/08/08 09:34:53;;;;;;;5.13;3.53;;;29.60;37.50;;;;;;5133950;28;20469;-68
2022/08/08 09:37:23;;;;;;;5.93;3.67;;;29.60;37.00;;;;;;5134071;27;20430;-68
2022/08/08 09:39:59;;;;;;;3.53;3.30;;;29.80;37.00;;;;;;5137971;27;20443;-68
2022/08/08 09:42:34;;;;;;;6.47;3.43;;;30.00;36.50;;;;;;5137692;27;20434;-68
2022/08/08 09:45:06;;;;;;;3.80;3.07;;;30.20;36.40;;;;;;5137531;27;20473;-68
2022/08/08 09:47:34;;;;;;;4.27;3.47;;;30.30;35.00;;;;;;5137357;27;20433;-67
2022/08/08 09:50:06;;;;;;;7.63;4.27;;;30.50;35.60;;;;;;5137146;27;20958;-67
2022/08/08 09:52:34;;;;;;;7.00;3.00;;;30.70;34.30;;;;;;5137590;27;20431;-67
2022/08/08 09:55:03;;;;;;;3.67;3.20;;;30.70;34.60;;;;;;5137062;27;20808;-67
2022/08/08 09:57:35;;;;;;;5.60;3.40;;;30.90;34.80;;;;;;5137378;27;20634;-67
2022/08/08 10:00:06;;;;;;;4.50;4.10;;;31.10;33.70;;;;;;5137241;27;20446;-68
2022/08/08 10:02:37;;;;;;;5.27;4.00;;;31.10;32.90;;;;;;5137319;27;20430;-67
2022/08/08 10:05:08;;;;;;;4.50;3.57;;;31.10;33.90;;;;;;5137789;27;20466;-67
2022/08/08 10:07:35;;;;;;;4.50;3.67;;;31.10;32.70;;;;;;5137231;27;20423;-68
2022/08/08 10:10:03;;;;;;;3.70;2.93;;;31.30;33.20;;;;;;5136864;27;20445;-68
2022/08/08 10:12:36;;;;;;;3.87;3.47;;;31.60;32.90;;;;;;5137034;27;20444;-68
2022/08/08 10:15:05;;;;;;;6.67;3.70;;;31.90;32.80;;;;;;5137199;27;20476;-68
2022/08/08 10:17:34;;;;;;;6.13;3.13;;;32.30;32.30;;;;;;5136882;27;20461;-68
2022/08/08 10:20:02;;;;;;;3.27;2.70;;;32.80;31.80;;;;;;5136872;27;20485;-68
2022/08/08 10:22:31;;;;;;;3.73;2.80;;;33.40;30.60;;;;;;5136891;27;20561;-68
2022/08/08 10:25:04;;;;;;;4.57;2.97;;;33.90;29.90;;;;;;5136800;27;20472;-68
2022/08/08 10:27:41;;;;;;;5.60;3.53;;;34.50;28.90;;;;;;5136913;27;20436;-68
2022/08/08 10:30:10;;;;;;;4.90;3.30;;;35.10;28.10;;;;;;5136914;27;20425;-68
2022/08/08 10:32:40;;;;;;;3.97;3.30;;;35.50;26.90;;;;;;5136915;27;20443;-68
2022/08/08 10:35:12;;;;;;;3.73;3.33;;;35.80;26.80;;;;;;5136619;27;20564;-68
2022/08/08 10:37:49;;;;;;;4.40;3.73;;;36.10;26.30;;;;;;5136714;27;20475;-68
2022/08/08 10:40:18;;;;;;;4.80;3.73;;;36.60;25.90;;;;;;5136805;27;20432;-68
2022/08/08 10:42:47;;;;;;;7.80;3.03;;;37.00;25.00;;;;;;5136636;27;20438;-68
2022/08/08 10:45:14;;;;;;;3.40;3.10;;;37.10;24.10;;;;;;5136163;27;20474;-68
2022/08/08 10:47:42;;;;;;;3.53;2.90;;;37.60;24.50;;;;;;5136247;27;20211;-68
2022/08/08 10:50:09;;;;;;;3.50;3.30;;;38.20;24.50;;;;;;5136306;27;20199;-68
2022/08/08 10:52:38;;;;;;;3.95;3.55;;;38.70;22.20;;;;;;5136672;27;20212;-68
2022/08/08 10:55:08;;;;;;;2.90;2.70;;;39.00;22.20;;;;;;5136567;27;20230;-68
2022/08/08 10:57:40;;;;;;;4.50;3.08;;;39.40;22.40;;;;;;5136347;27;20225;-68
2022/08/08 11:00:10;;;;;;;5.03;3.22;;;39.70;21.10;;;;;;5136259;27;20249;-68
2022/08/08 11:02:37;;;;;;;2.40;2.20;;;40.00;21.20;;;;;;5135786;27;20714;-68
2022/08/08 11:05:07;;;;;;;2.80;2.60;;;40.50;21.10;;;;;;5136048;27;20220;-68
2022/08/08 11:07:36;;;;;;;3.72;2.97;;;40.90;20.40;;;;;;5136145;27;20181;-68
2022/08/08 11:10:05;;;;;;;3.00;2.70;;;41.30;20.30;;;;;;5136032;27;20210;-68
2022/08/08 11:12:33;;;;;;;4.90;2.53;;;41.80;19.60;;;;;;5136013;27;20192;-68
2022/08/08 11:15:01;;;;;;;2.83;2.30;;;42.10;18.40;;;;;;5135507;27;20223;-68
2022/08/08 11:17:31;;;;;;;3.10;2.45;;;42.40;17.30;;;;;;5135610;27;20214;-68
2022/08/08 11:19:59;;;;;;;4.57;2.20;;;42.40;17.60;;;;;;5135805;27;20207;-68
2022/08/08 11:22:29;;;;;;;2.50;2.13;;;42.60;18.00;;;;;;5135815;27;20224;-68
2022/08/08 11:25:00;;;;;;;2.22;2.03;;;43.10;17.70;;;;;;5135732;27;20243;-68
2022/08/08 11:27:31;;;;;;;2.40;2.20;;;43.30;17.90;;;;;;5135750;27;20189;-68
2022/08/08 11:29:59;;;;;;;2.97;2.63;;;43.60;17.50;;;;;;5135620;27;20203;-68
2022/08/08 11:32:30;;;;;;;2.95;2.75;;;43.90;17.20;;;;;;5135819;27;20627;-69
2022/08/08 11:35:06;;;;;;;3.03;2.47;;;44.10;16.70;;;;;;5135565;27;20288;-69
2022/08/08 11:37:33;;;;;;;2.53;2.33;;;44.20;16.40;;;;;;5135234;27;20646;-69
2022/08/08 11:40:02;;;;;;;2.72;2.53;;;44.40;16.60;;;;;;5135117;27;20580;-69
2022/08/08 11:42:30;;;;;;;3.00;2.70;;;44.50;16.00;;;;;;5135309;27;20238;-68
2022/08/08 11:44:57;;;;;;;4.03;2.80;;;44.30;16.10;;;;;;5135233;27;20223;-68
2022/08/08 11:47:25;;;;;;;4.28;2.20;;;43.90;16.40;;;;;;5135311;27;20184;-68
2022/08/08 11:49:55;;;;;;;3.10;2.45;;;43.90;17.20;;;;;;5135150;27;20206;-68
2022/08/08 11:52:23;;;;;;;3.15;2.33;;;44.00;17.10;;;;;;5135271;27;20200;-69
2022/08/08 11:54:50;;;;;;;3.28;2.30;;;44.50;17.00;;;;;;5135283;27;20229;-69
2022/08/08 11:57:21;;;;;;;2.17;2.08;;;44.80;16.80;;;;;;5135197;27;20247;-69
2022/08/08 11:59:55;;;;;;;2.45;2.20;;;45.30;16.50;;;;;;5134779;27;20629;-69
2022/08/08 12:02:24;;;;;;;2.42;2.22;;;45.70;16.00;;;;;;5134419;27;20626;-69
2022/08/08 12:05:02;;;;;;;2.67;1.80;;;46.10;15.60;;;;;;5134632;27;20619;-69
2022/08/08 12:07:29;;;;;;;2.63;2.42;;;46.60;15.00;;;;;;5134972;27;20188;-69
2022/08/08 12:09:56;;;;;;;3.65;2.50;;;47.00;14.80;;;;;;5134624;27;20541;-69
2022/08/08 12:12:25;;;;;;;2.20;2.00;;;47.30;14.80;;;;;;5135058;27;20181;-69
2022/08/08 12:15:02;;;;;;;2.60;2.42;;;47.60;14.30;;;;;;5134810;27;20220;-69
2022/08/08 12:17:35;;;;;;;2.20;2.10;;;47.90;14.10;;;;;;5134493;27;20582;-69
2022/08/08 12:20:06;;;;;;;3.15;2.30;;;48.10;13.90;;;;;;5134772;27;20212;-69
2022/08/08 12:22:34;;;;;;;4.47;2.15;;;48.30;13.70;;;;;;5134935;27;20311;-69
2022/08/08 12:25:01;;;;;;;3.53;2.67;;;48.50;13.60;;;;;;5135015;27;20224;-69
2022/08/08 12:27:37;;;;;;;2.50;2.28;;;48.60;13.20;;;;;;5135275;27;20207;-69
2022/08/08 12:30:05;;;;;;;2.40;2.20;;;48.40;13.30;;;;;;5135732;27;20207;-69
2022/08/08 12:32:42;;;;;;;2.90;2.50;;;48.20;14.10;;;;;;5135901;27;20207;-69
2022/08/08 12:35:19;;;;;;;2.88;2.15;;;48.20;13.20;;;;;;5136187;28;20219;-69
2022/08/08 12:37:47;;;;;;;3.88;2.63;;;48.20;13.70;;;;;;5135412;28;20202;-69
2022/08/08 12:40:16;;;;;;;4.22;2.30;;;47.80;13.70;;;;;;5135384;28;20192;-69
2022/08/08 12:42:45;;;;;;;2.95;2.72;;;47.50;14.40;;;;;;5134430;28;20230;-69
2022/08/08 12:45:12;;;;;;;4.47;1.95;;;47.10;14.20;;;;;;5134486;28;20230;-69
2022/08/08 12:47:39;;;;;;;2.45;2.03;;;46.90;14.90;;;;;;5134531;28;20300;-69
2022/08/08 12:50:07;;;;;;;2.60;2.33;;;47.20;14.90;;;;;;5134178;28;20736;-69
2022/08/08 12:52:38;;;;;;;2.40;2.20;;;47.60;14.30;;;;;;5134544;28;20228;-69
2022/08/08 12:55:07;;;;;;;1.90;1.80;;;47.90;14.30;;;;;;5134310;28;20224;-69
2022/08/08 12:57:34;;;;;;;2.92;2.40;;;48.00;13.70;;;;;;5134384;28;20200;-69
2022/08/08 13:00:01;;;;;;;4.13;1.80;;;48.20;13.80;;;;;;5134401;28;20200;-69
2022/08/08 13:02:29;;;;;;;3.83;2.10;;;48.50;13.80;;;;;;5134336;28;20220;-69
2022/08/08 13:04:58;;;;;;;2.22;2.03;;;48.70;13.30;;;;;;5133974;28;20731;-69
2022/08/08 13:07:36;;;;;;;4.88;2.47;;;48.70;13.60;;;;;;5133994;28;20204;-69
2022/08/08 13:10:07;;;;;;;3.30;2.33;;;49.00;13.30;;;;;;5134332;28;20184;-69
2022/08/08 13:12:38;;;;;;;3.88;2.67;;;49.20;13.10;;;;;;5135953;27;20190;-69
2022/08/08 13:15:07;;;;;;;2.60;2.40;;;48.90;13.00;;;;;;5138340;27;20231;-69
2022/08/08 13:17:34;;;;;;;3.38;2.78;;;48.90;13.30;;;;;;5138009;27;20211;-69
2022/08/08 13:20:02;;;;;;;4.22;1.90;;;49.10;12.90;;;;;;5137845;27;20218;-69
2022/08/08 13:22:28;;;;;;;4.20;2.45;;;49.20;13.20;;;;;;5138035;27;20219;-69
2022/08/08 13:24:57;;;;;;;3.00;2.58;;;49.50;12.80;;;;;;5138053;27;20235;-69
2022/08/08 13:27:28;;;;;;;2.85;2.28;;;49.70;12.80;;;;;;5138092;27;20224;-69